Time;durP1;ratioP1;P1;durP2;ratioP2;P2;SDS_P1;SDS_P2;PMS_P1;PMS_P2;Temp;Humidity;BMP_temperature;BMP_pressure;BME280_temperature;BME280_humidity;BME280_pressure;Samples;Min_cycle;Max_cycle;Signal;HPM_P1;HPM_P2
2022/02/14 07:15:59;;;;;;;3.22;1.70;;;;;;;;;;9922402;27;21409084;-85
2022/02/14 07:27:36;;;;;;;3.17;1.23;;;;;;;;;;10563081;28;20021;-85
2022/02/14 07:33:21;;;;;;;;;;;;;;;;;;;;;
2022/02/14 07:55:54;;;;;;;2.55;1.63;;;;;;;;;;10457988;28;20028;-86
2022/02/14 08:01:38;;;;;;;2.60;1.48;;;;;;;;;;10543071;28;20028;-86
2022/02/14 08:12:20;;;;;;;5.68;1.50;;;;;;;;;;10568492;27;20098;-83
2022/02/14 08:23:43;;;;;;;4.60;1.58;;;;;;;;;;10710447;27;20035;-83
2022/02/14 08:52:05;;;;;;;6.85;1.95;;;;;;;;;;10703555;27;20015;-84
2022/02/14 09:08:43;;;;;;;4.53;1.55;;;;;;;;;;10712460;27;20015;-85
2022/02/14 09:24:48;;;;;;;3.70;1.83;;;;;;;;;;10706314;27;20018;-84
2022/02/14 09:41:09;;;;;;;4.75;1.88;;;;;;;;;;10707395;27;20046;-84
2022/02/14 09:46:16;;;;;;;4.38;1.80;;;;;;;;;;10683972;27;20027;-83
2022/02/14 09:51:56;;;;;;;3.88;1.65;;;;;;;;;;10681938;27;20026;-84
2022/02/14 09:57:39;;;;;;;5.70;1.43;;;;;;;;;;10489881;28;20025;-84
2022/02/14 10:03:16;;;;;;;4.15;1.65;;;;;;;;;;10457309;28;20041;-83
2022/02/14 10:08:24;;;;;;;3.35;1.50;;;;;;;;;;10452675;28;20033;-83
2022/02/14 10:13:30;;;;;;;3.78;1.20;;;;;;;;;;10551639;27;20054;-83
2022/02/14 10:18:33;;;;;;;2.50;1.27;;;;;;;;;;10670884;27;20022;-82
2022/02/14 10:23:34;;;;;;;4.25;1.23;;;;;;;;;;10677177;27;20117;-83
2022/02/14 10:28:36;;;;;;;5.25;1.58;;;;;;;;;;10670312;27;20057;-85
2022/02/14 10:33:56;;;;;;;3.33;0.95;;;;;;;;;;10666731;27;20057;-86
2022/02/14 10:39:06;;;;;;;1.85;1.10;;;;;;;;;;10671138;27;20041;-86
2022/02/14 10:44:10;;;;;;;2.75;1.02;;;;;;;;;;10671846;27;20121;-86
2022/02/14 10:49:11;;;;;;;3.35;1.30;;;;;;;;;;10670796;27;20027;-85
2022/02/14 10:54:12;;;;;;;;;;;;;;;;;;10671337;27;20035;-85
2022/02/14 10:59:17;;;;;;;4.75;2.70;;;;;;;;;;10674112;27;19968;-86
2022/02/14 11:04:18;;;;;;;7.78;2.55;;;;;;;;;;10685506;27;20090;-86
2022/02/14 11:09:21;;;;;;;10.77;3.53;;;;;;;;;;10673013;27;20035;-87
2022/02/14 11:14:22;;;;;;;4.28;2.28;;;;;;;;;;10666892;27;20031;-87
2022/02/14 11:19:24;;;;;;;11.43;4.05;;;;;;;;;;10666092;27;20063;-88
2022/02/14 11:24:30;;;;;;;10.73;4.18;;;;;;;;;;10667468;27;20030;-86
2022/02/14 11:29:49;;;;;;;5.63;2.05;;;;;;;;;;10667105;27;20027;-88
2022/02/14 11:35:01;;;;;;;4.85;2.28;;;;;;;;;;10668447;27;20026;-86
2022/02/14 11:40:21;;;;;;;9.13;3.55;;;;;;;;;;10668348;27;20125;-86
2022/02/14 11:45:22;;;;;;;6.40;2.05;;;;;;;;;;10671778;27;20023;-84
2022/02/14 11:50:42;;;;;;;23.42;6.95;;;;;;;;;;10698353;27;20480;-87
2022/02/14 11:55:43;;;;;;;23.58;9.85;;;;;;;;;;10676583;27;20118;-86
2022/02/14 12:00:44;;;;;;;20.80;8.90;;;;;;;;;;10677861;27;20053;-86
2022/02/14 12:05:45;;;;;;;;;;;;;;;;;;10678846;27;20439;-89
2022/02/14 12:10:51;;;;;;;17.13;6.30;;;;;;;;;;10677430;27;19926;-85
2022/02/14 12:20:58;;;;;;;38.00;8.52;;;;;;;;;;10697371;27;20042;-86
2022/02/14 12:26:00;;;;;;;32.80;7.90;;;;;;;;;;10677676;27;20086;-86
2022/02/14 12:31:01;;;;;;;9.25;3.10;;;;;;;;;;10681201;27;20026;-85
2022/02/14 12:36:02;;;;;;;;;;;;;;;;;;10668315;22;20067;-78
2022/02/14 12:41:07;;;;;;;8.90;2.58;;;;;;;;;;10584948;28;20276;-82
2022/02/14 12:46:10;;;;;;;7.28;2.50;;;;;;;;;;10608916;28;20028;-79
2022/02/14 12:51:14;;;;;;;5.15;2.33;;;;;;;;;;10570542;28;20031;-79
2022/02/14 12:56:19;;;;;;;3.42;1.50;;;;;;;;;;10588998;28;20024;-80
2022/02/14 13:01:21;;;;;;;2.83;1.00;;;;;;;;;;10584841;28;20027;-79
2022/02/14 13:06:56;;;;;;;5.53;1.50;;;;;;;;;;10577575;28;20066;-80
2022/02/14 13:11:57;;;;;;;4.43;2.10;;;;;;;;;;10528321;28;20035;-79
2022/02/14 13:16:58;;;;;;;;;;;;;;;;;;10585633;28;20039;-79
2022/02/14 13:21:59;;;;;;;5.30;1.33;;;;;;;;;;10600329;28;19907;-78
2022/02/14 13:27:00;;;;;;;6.78;1.38;;;;;;;;;;10586747;28;20039;-79
2022/02/14 13:32:01;;;;;;;8.13;2.28;;;;;;;;;;10597004;28;20043;-81
2022/02/14 13:37:02;;;;;;;;;;;;;;;;;;10588214;28;20063;-80
2022/02/14 13:42:04;;;;;;;4.10;1.30;;;;;;;;;;10585457;28;19935;-78
2022/02/14 13:47:18;;;;;;;2.80;1.10;;;;;;;;;;10586247;28;20020;-78
2022/02/14 13:52:26;;;;;;;3.67;1.30;;;;;;;;;;10585175;28;20023;-79
2022/02/14 13:57:27;;;;;;;4.80;1.10;;;;;;;;;;10580532;28;20035;-78
2022/02/14 14:02:28;;;;;;;4.43;1.38;;;;;;;;;;10581915;28;20035;-78
2022/02/14 14:07:40;;;;;;;3.65;1.27;;;;;;;;;;10581333;28;20016;-78
2022/02/14 14:12:48;;;;;;;9.52;3.88;;;;;;;;;;10580720;28;20133;-79
2022/02/14 14:17:49;;;;;;;5.55;1.20;;;;;;;;;;10595029;28;20549;-78
2022/02/14 14:22:51;;;;;;;;;;;;;;;;;;10584813;28;20024;-79
2022/02/14 14:27:52;;;;;;;2.42;1.20;;;;;;;;;;10584143;28;19990;-78
2022/02/14 14:32:54;;;;;;;3.88;1.42;;;;;;;;;;10580011;28;20023;-79
2022/02/14 14:37:55;;;;;;;5.07;1.50;;;;;;;;;;10584506;28;20396;-79
2022/02/14 14:42:56;;;;;;;5.50;1.73;;;;;;;;;;10601625;28;20035;-79
2022/02/14 14:47:57;;;;;;;7.57;1.50;;;;;;;;;;10587229;28;20069;-79
2022/02/14 14:53:04;;;;;;;5.28;1.50;;;;;;;;;;10601025;28;20031;-79
2022/02/14 14:58:06;;;;;;;4.40;1.38;;;;;;;;;;10614002;28;20075;-79
2022/02/14 15:03:07;;;;;;;15.10;2.40;;;;;;;;;;10597259;28;20027;-79
2022/02/14 15:08:09;;;;;;;11.60;2.15;;;;;;;;;;10615406;28;20034;-80
2022/02/14 15:13:28;;;;;;;7.72;1.67;;;;;;;;;;10590866;28;20073;-82
2022/02/14 15:18:32;;;;;;;17.08;2.35;;;;;;;;;;10586206;28;20104;-81
2022/02/14 15:23:53;;;;;;;5.28;1.30;;;;;;;;;;10616240;28;20036;-81
2022/02/14 15:28:54;;;;;;;12.63;1.70;;;;;;;;;;10596806;28;20113;-81
2022/02/14 15:33:55;;;;;;;10.65;2.13;;;;;;;;;;10596417;28;20034;-80
2022/02/14 15:39:02;;;;;;;4.07;1.52;;;;;;;;;;10598227;28;20144;-81
2022/02/14 15:44:11;;;;;;;6.95;1.40;;;;;;;;;;10595800;28;20431;-81
2022/02/14 15:49:13;;;;;;;5.00;1.75;;;;;;;;;;10585723;28;20031;-80
2022/02/14 15:54:15;;;;;;;4.05;1.48;;;;;;;;;;10603648;28;20108;-79
2022/02/14 15:59:16;;;;;;;3.58;1.20;;;;;;;;;;10601937;28;20047;-79
2022/02/14 16:04:17;;;;;;;;;;;;;;;;;;10622212;28;20012;-79
2022/02/14 16:09:19;;;;;;;1.95;1.10;;;;;;;;;;10619915;28;20006;-78
2022/02/14 16:14:27;;;;;;;4.40;1.20;;;;;;;;;;10596437;28;20024;-78
2022/02/14 16:19:41;;;;;;;3.75;1.40;;;;;;;;;;10587468;28;20043;-79
2022/02/14 16:30:38;;;;;;;3.38;1.50;;;;;;;;;;10578599;28;20035;-80
2022/02/14 16:46:57;;;;;;;5.22;1.63;;;;;;;;;;10408378;28;20029;-79
2022/02/14 16:58:19;;;;;;;2.65;1.10;;;;;;;;;;10566520;28;20039;-80
2022/02/14 17:03:26;;;;;;;2.42;1.13;;;;;;;;;;10584102;28;20024;-80
2022/02/14 17:08:47;;;;;;;2.90;1.10;;;;;;;;;;10583670;28;20142;-79
2022/02/14 17:14:53;;;;;;;3.35;0.98;;;;;;;;;;10597552;28;20034;-79
2022/02/14 17:19:37;;;;;;;4.50;1.30;;;;;;;;;;10596868;28;20053;-79
2022/02/14 19:14:48;;;;;;;2.33;1.00;;;;;;;;;;10511312;28;20568;-85
2022/02/14 19:20:22;;;;;;;4.40;1.30;;;;;;;;;;10507011;28;20045;-86
2022/02/14 19:37:55;;;;;;;;;;;;;;;;;;;;;
2022/02/14 19:43:23;;;;;;;6.30;2.50;;;;;;;;;;10419548;28;20025;-86
2022/02/14 20:00:14;;;;;;;;;;;;;;;;;;;;;
2022/02/14 20:16:14;;;;;;;4.95;2.10;;;;;;;;;;10507043;28;20036;-85
2022/02/14 20:21:26;;;;;;;4.40;2.58;;;;;;;;;;10506879;28;20074;-85
